sensor_id;sensor_type;location;lat;lon;timestamp;pressure;altitude;pressure_sealevel;temperature
45701;BMP280;36277;32.852;-116.998;2023-10-31T00:01:54;99980.25;;;24.39
45701;BMP280;36277;32.852;-116.998;2023-10-31T00:04:21;99980.53;;;24.44
45701;BMP280;36277;32.852;-116.998;2023-10-31T00:06:47;99984.41;;;24.50
45701;BMP280;36277;32.852;-116.998;2023-10-31T00:09:13;99984.53;;;24.63
45701;BMP280;36277;32.852;-116.998;2023-10-31T00:11:41;99976.59;;;24.81
45701;BMP280;36277;32.852;-116.998;2023-10-31T00:14:08;99979.16;;;24.82
45701;BMP280;36277;32.852;-116.998;2023-10-31T00:16:35;99982.88;;;24.68
45701;BMP280;36277;32.852;-116.998;2023-10-31T00:19:01;99990.00;;;24.56
45701;BMP280;36277;32.852;-116.998;2023-10-31T00:21:27;99986.44;;;24.41
45701;BMP280;36277;32.852;-116.998;2023-10-31T00:23:53;99994.94;;;24.40
45701;BMP280;36277;32.852;-116.998;2023-10-31T00:26:19;99997.28;;;24.43
45701;BMP280;36277;32.852;-116.998;2023-10-31T00:28:46;99990.66;;;24.58
45701;BMP280;36277;32.852;-116.998;2023-10-31T00:31:12;99997.75;;;24.74
45701;BMP280;36277;32.852;-116.998;2023-10-31T00:33:40;99995.78;;;24.89
45701;BMP280;36277;32.852;-116.998;2023-10-31T00:36:07;100005.94;;;24.88
45701;BMP280;36277;32.852;-116.998;2023-10-31T00:38:33;100010.59;;;24.81
45701;BMP280;36277;32.852;-116.998;2023-10-31T00:41:00;100010.94;;;24.72
45701;BMP280;36277;32.852;-116.998;2023-10-31T00:43:26;100010.22;;;24.63
45701;BMP280;36277;32.852;-116.998;2023-10-31T00:45:52;100018.00;;;24.53
45701;BMP280;36277;32.852;-116.998;2023-10-31T00:48:19;100014.50;;;24.45
45701;BMP280;36277;32.852;-116.998;2023-10-31T00:50:46;100007.91;;;24.25
45701;BMP280;36277;32.852;-116.998;2023-10-31T00:55:40;100009.69;;;24.12
45701;BMP280;36277;32.852;-116.998;2023-10-31T00:58:06;100014.88;;;24.00
45701;BMP280;36277;32.852;-116.998;2023-10-31T01:00:33;100016.78;;;24.00
45701;BMP280;36277;32.852;-116.998;2023-10-31T01:03:00;100013.56;;;23.96
45701;BMP280;36277;32.852;-116.998;2023-10-31T01:05:26;100013.03;;;23.86
45701;BMP280;36277;32.852;-116.998;2023-10-31T01:07:54;100021.03;;;23.81
45701;BMP280;36277;32.852;-116.998;2023-10-31T01:10:21;100022.53;;;23.84
45701;BMP280;36277;32.852;-116.998;2023-10-31T01:12:50;100024.19;;;23.78
45701;BMP280;36277;32.852;-116.998;2023-10-31T01:15:16;100017.31;;;23.74
45701;BMP280;36277;32.852;-116.998;2023-10-31T01:17:43;100033.94;;;23.95
45701;BMP280;36277;32.852;-116.998;2023-10-31T01:20:09;100026.06;;;24.13
45701;BMP280;36277;32.852;-116.998;2023-10-31T01:22:36;100034.78;;;24.37
45701;BMP280;36277;32.852;-116.998;2023-10-31T01:25:02;100028.63;;;24.56
45701;BMP280;36277;32.852;-116.998;2023-10-31T01:27:29;100030.72;;;24.75
45701;BMP280;36277;32.852;-116.998;2023-10-31T01:29:55;100043.13;;;24.92
45701;BMP280;36277;32.852;-116.998;2023-10-31T01:32:21;100047.31;;;25.09
45701;BMP280;36277;32.852;-116.998;2023-10-31T01:34:48;100043.59;;;25.23
45701;BMP280;36277;32.852;-116.998;2023-10-31T01:37:14;100049.19;;;25.36
45701;BMP280;36277;32.852;-116.998;2023-10-31T01:39:40;100043.75;;;25.49
45701;BMP280;36277;32.852;-116.998;2023-10-31T01:42:07;100050.97;;;25.43
45701;BMP280;36277;32.852;-116.998;2023-10-31T01:44:33;100051.53;;;25.32
45701;BMP280;36277;32.852;-116.998;2023-10-31T01:46:59;100046.75;;;25.14
45701;BMP280;36277;32.852;-116.998;2023-10-31T01:49:25;100048.59;;;25.13
45701;BMP280;36277;32.852;-116.998;2023-10-31T01:51:52;100047.41;;;25.22
45701;BMP280;36277;32.852;-116.998;2023-10-31T01:54:18;100054.28;;;25.32
45701;BMP280;36277;32.852;-116.998;2023-10-31T01:56:45;100058.59;;;25.41
45701;BMP280;36277;32.852;-116.998;2023-10-31T01:59:14;100055.25;;;25.52
45701;BMP280;36277;32.852;-116.998;2023-10-31T02:01:41;100050.84;;;25.64
45701;BMP280;36277;32.852;-116.998;2023-10-31T02:04:07;100052.44;;;25.80
45701;BMP280;36277;32.852;-116.998;2023-10-31T02:06:33;100056.41;;;25.77
45701;BMP280;36277;32.852;-116.998;2023-10-31T02:09:00;100049.72;;;25.52
45701;BMP280;36277;32.852;-116.998;2023-10-31T02:11:26;100055.16;;;25.33
45701;BMP280;36277;32.852;-116.998;2023-10-31T02:13:53;100055.94;;;25.21
45701;BMP280;36277;32.852;-116.998;2023-10-31T02:16:19;100056.38;;;25.24
45701;BMP280;36277;32.852;-116.998;2023-10-31T02:18:45;100058.88;;;25.19
45701;BMP280;36277;32.852;-116.998;2023-10-31T02:21:12;100071.84;;;24.98
45701;BMP280;36277;32.852;-116.998;2023-10-31T02:23:38;100063.16;;;24.73
45701;BMP280;36277;32.852;-116.998;2023-10-31T02:26:05;100060.50;;;24.59
45701;BMP280;36277;32.852;-116.998;2023-10-31T02:28:31;100065.78;;;24.39
45701;BMP280;36277;32.852;-116.998;2023-10-31T02:30:57;100062.25;;;24.24
45701;BMP280;36277;32.852;-116.998;2023-10-31T02:33:24;100066.16;;;24.15
45701;BMP280;36277;32.852;-116.998;2023-10-31T02:35:50;100066.13;;;24.30
45701;BMP280;36277;32.852;-116.998;2023-10-31T02:38:16;100065.88;;;24.46
45701;BMP280;36277;32.852;-116.998;2023-10-31T02:40:42;100074.06;;;24.60
45701;BMP280;36277;32.852;-116.998;2023-10-31T02:43:09;100079.53;;;24.75
45701;BMP280;36277;32.852;-116.998;2023-10-31T02:45:35;100073.69;;;24.63
45701;BMP280;36277;32.852;-116.998;2023-10-31T02:48:01;100073.50;;;24.44
45701;BMP280;36277;32.852;-116.998;2023-10-31T02:50:27;100071.56;;;24.23
45701;BMP280;36277;32.852;-116.998;2023-10-31T02:52:54;100081.22;;;24.13
45701;BMP280;36277;32.852;-116.998;2023-10-31T02:55:20;100084.25;;;24.18
45701;BMP280;36277;32.852;-116.998;2023-10-31T02:57:46;100077.16;;;24.30
45701;BMP280;36277;32.852;-116.998;2023-10-31T03:00:13;100079.84;;;24.44
45701;BMP280;36277;32.852;-116.998;2023-10-31T03:02:39;100078.31;;;24.56
45701;BMP280;36277;32.852;-116.998;2023-10-31T03:05:06;100081.47;;;24.53
45701;BMP280;36277;32.852;-116.998;2023-10-31T03:07:32;100078.72;;;24.39
45701;BMP280;36277;32.852;-116.998;2023-10-31T03:09:59;100088.94;;;24.24
45701;BMP280;36277;32.852;-116.998;2023-10-31T03:12:25;100089.66;;;24.12
45701;BMP280;36277;32.852;-116.998;2023-10-31T03:14:51;100085.00;;;24.12
45701;BMP280;36277;32.852;-116.998;2023-10-31T03:17:17;100085.16;;;24.25
45701;BMP280;36277;32.852;-116.998;2023-10-31T03:19:44;100097.84;;;24.40
45701;BMP280;36277;32.852;-116.998;2023-10-31T03:22:10;100095.44;;;24.52
45701;BMP280;36277;32.852;-116.998;2023-10-31T03:24:36;100088.47;;;24.56
45701;BMP280;36277;32.852;-116.998;2023-10-31T03:27:02;100092.13;;;24.42
45701;BMP280;36277;32.852;-116.998;2023-10-31T03:29:29;100096.56;;;24.22
45701;BMP280;36277;32.852;-116.998;2023-10-31T03:31:55;100095.78;;;24.07
45701;BMP280;36277;32.852;-116.998;2023-10-31T03:34:21;100092.44;;;23.97
45701;BMP280;36277;32.852;-116.998;2023-10-31T03:36:47;100096.81;;;24.06
45701;BMP280;36277;32.852;-116.998;2023-10-31T03:39:13;100104.22;;;24.20
45701;BMP280;36277;32.852;-116.998;2023-10-31T03:41:40;100104.06;;;24.28
45701;BMP280;36277;32.852;-116.998;2023-10-31T03:44:08;100106.50;;;24.37
45701;BMP280;36277;32.852;-116.998;2023-10-31T03:46:34;100113.44;;;24.48
45701;BMP280;36277;32.852;-116.998;2023-10-31T03:49:00;100114.59;;;24.39
45701;BMP280;36277;32.852;-116.998;2023-10-31T03:51:26;100113.53;;;24.19
45701;BMP280;36277;32.852;-116.998;2023-10-31T03:53:53;100121.34;;;24.01
45701;BMP280;36277;32.852;-116.998;2023-10-31T03:56:19;100124.25;;;23.93
45701;BMP280;36277;32.852;-116.998;2023-10-31T03:58:45;100118.97;;;23.98
45701;BMP280;36277;32.852;-116.998;2023-10-31T04:01:11;100116.31;;;24.05
45701;BMP280;36277;32.852;-116.998;2023-10-31T04:03:38;100121.53;;;24.14
45701;BMP280;36277;32.852;-116.998;2023-10-31T04:06:04;100118.63;;;24.22
45701;BMP280;36277;32.852;-116.998;2023-10-31T04:08:30;100114.72;;;24.31
45701;BMP280;36277;32.852;-116.998;2023-10-31T04:10:57;100115.00;;;24.36
45701;BMP280;36277;32.852;-116.998;2023-10-31T04:13:23;100120.13;;;24.39
45701;BMP280;36277;32.852;-116.998;2023-10-31T04:15:49;100119.81;;;24.13
45701;BMP280;36277;32.852;-116.998;2023-10-31T04:18:16;100125.00;;;23.87
45701;BMP280;36277;32.852;-116.998;2023-10-31T04:20:42;100130.44;;;23.81
45701;BMP280;36277;32.852;-116.998;2023-10-31T04:23:08;100126.22;;;23.85
45701;BMP280;36277;32.852;-116.998;2023-10-31T04:25:35;100124.63;;;23.90
45701;BMP280;36277;32.852;-116.998;2023-10-31T04:28:02;100128.28;;;23.97
45701;BMP280;36277;32.852;-116.998;2023-10-31T04:30:28;100127.53;;;24.03
45701;BMP280;36277;32.852;-116.998;2023-10-31T04:32:54;100130.34;;;24.10
45701;BMP280;36277;32.852;-116.998;2023-10-31T04:35:21;100134.72;;;24.18
45701;BMP280;36277;32.852;-116.998;2023-10-31T04:37:47;100133.28;;;24.22
45701;BMP280;36277;32.852;-116.998;2023-10-31T04:40:13;100135.44;;;24.27
45701;BMP280;36277;32.852;-116.998;2023-10-31T04:42:40;100145.94;;;24.31
45701;BMP280;36277;32.852;-116.998;2023-10-31T04:45:10;100139.44;;;24.39
45701;BMP280;36277;32.852;-116.998;2023-10-31T04:47:37;100143.31;;;24.44
45701;BMP280;36277;32.852;-116.998;2023-10-31T04:50:03;100156.13;;;24.52
45701;BMP280;36277;32.852;-116.998;2023-10-31T04:52:29;100151.28;;;24.54
45701;BMP280;36277;32.852;-116.998;2023-10-31T04:54:56;100150.06;;;24.56
45701;BMP280;36277;32.852;-116.998;2023-10-31T04:57:22;100155.56;;;24.56
45701;BMP280;36277;32.852;-116.998;2023-10-31T04:59:48;100162.59;;;24.59
45701;BMP280;36277;32.852;-116.998;2023-10-31T05:02:15;100164.09;;;24.61
45701;BMP280;36277;32.852;-116.998;2023-10-31T05:04:41;100162.88;;;24.64
45701;BMP280;36277;32.852;-116.998;2023-10-31T05:07:07;100159.06;;;24.65
45701;BMP280;36277;32.852;-116.998;2023-10-31T05:09:34;100168.00;;;24.67
45701;BMP280;36277;32.852;-116.998;2023-10-31T05:12:01;100170.53;;;24.68
45701;BMP280;36277;32.852;-116.998;2023-10-31T05:14:27;100172.25;;;24.69
45701;BMP280;36277;32.852;-116.998;2023-10-31T05:16:53;100171.88;;;24.72
45701;BMP280;36277;32.852;-116.998;2023-10-31T05:19:20;100167.19;;;24.73
45701;BMP280;36277;32.852;-116.998;2023-10-31T05:21:46;100179.94;;;24.74
45701;BMP280;36277;32.852;-116.998;2023-10-31T05:24:12;100178.72;;;24.76
45701;BMP280;36277;32.852;-116.998;2023-10-31T05:26:39;100183.19;;;24.77
45701;BMP280;36277;32.852;-116.998;2023-10-31T05:29:08;100178.31;;;24.79
45701;BMP280;36277;32.852;-116.998;2023-10-31T05:31:35;100185.72;;;24.79
45701;BMP280;36277;32.852;-116.998;2023-10-31T05:34:01;100195.72;;;24.80
45701;BMP280;36277;32.852;-116.998;2023-10-31T05:36:29;100191.06;;;24.80
45701;BMP280;36277;32.852;-116.998;2023-10-31T05:38:55;100180.03;;;24.80
45701;BMP280;36277;32.852;-116.998;2023-10-31T05:41:22;100178.09;;;24.81
45701;BMP280;36277;32.852;-116.998;2023-10-31T05:43:48;100187.72;;;24.85
45701;BMP280;36277;32.852;-116.998;2023-10-31T05:46:15;100186.88;;;24.84
45701;BMP280;36277;32.852;-116.998;2023-10-31T05:48:44;100189.41;;;24.86
45701;BMP280;36277;32.852;-116.998;2023-10-31T05:51:16;100189.41;;;24.86
45701;BMP280;36277;32.852;-116.998;2023-10-31T05:53:44;100194.94;;;24.86
45701;BMP280;36277;32.852;-116.998;2023-10-31T05:56:12;100200.47;;;24.86
45701;BMP280;36277;32.852;-116.998;2023-10-31T05:58:39;100189.41;;;24.86
45701;BMP280;36277;32.852;-116.998;2023-10-31T06:01:05;100193.03;;;24.86
45701;BMP280;36277;32.852;-116.998;2023-10-31T06:03:32;100202.16;;;24.87
45701;BMP280;36277;32.852;-116.998;2023-10-31T06:05:59;100207.69;;;24.87
45701;BMP280;36277;32.852;-116.998;2023-10-31T06:08:25;100195.78;;;24.86
45701;BMP280;36277;32.852;-116.998;2023-10-31T06:10:55;100205.97;;;24.86
45701;BMP280;36277;32.852;-116.998;2023-10-31T06:13:21;100203.22;;;24.86
45701;BMP280;36277;32.852;-116.998;2023-10-31T06:15:48;100205.97;;;24.86
45701;BMP280;36277;32.852;-116.998;2023-10-31T06:18:14;100200.47;;;24.86
45701;BMP280;36277;32.852;-116.998;2023-10-31T06:20:40;100192.38;;;24.84
45701;BMP280;36277;32.852;-116.998;2023-10-31T06:23:06;100197.69;;;24.86
45701;BMP280;36277;32.852;-116.998;2023-10-31T06:25:33;100189.41;;;24.86
45701;BMP280;36277;32.852;-116.998;2023-10-31T06:27:59;100186.66;;;24.86
45701;BMP280;36277;32.852;-116.998;2023-10-31T06:30:26;100188.75;;;24.84
45701;BMP280;36277;32.852;-116.998;2023-10-31T06:32:53;100186.66;;;24.86
45701;BMP280;36277;32.852;-116.998;2023-10-31T06:35:19;100174.94;;;24.84
45701;BMP280;36277;32.852;-116.998;2023-10-31T06:37:46;100188.75;;;24.84
45701;BMP280;36277;32.852;-116.998;2023-10-31T06:40:12;100186.88;;;24.84
45701;BMP280;36277;32.852;-116.998;2023-10-31T06:42:38;100192.38;;;24.84
45701;BMP280;36277;32.852;-116.998;2023-10-31T06:45:05;100196.19;;;24.83
45701;BMP280;36277;32.852;-116.998;2023-10-31T06:47:31;100201.72;;;24.83
45701;BMP280;36277;32.852;-116.998;2023-10-31T06:49:58;100192.78;;;24.81
45701;BMP280;36277;32.852;-116.998;2023-10-31T06:52:24;100194.00;;;24.79
45701;BMP280;36277;32.852;-116.998;2023-10-31T06:54:50;100208.28;;;24.82
45701;BMP280;36277;32.852;-116.998;2023-10-31T06:57:16;100197.44;;;24.81
45701;BMP280;36277;32.852;-116.998;2023-10-31T06:59:43;100199.53;;;24.79
45701;BMP280;36277;32.852;-116.998;2023-10-31T07:02:09;100197.81;;;24.78
45701;BMP280;36277;32.852;-116.998;2023-10-31T07:04:35;100189.75;;;24.76
45701;BMP280;36277;32.852;-116.998;2023-10-31T07:07:01;100188.03;;;24.75
45701;BMP280;36277;32.852;-116.998;2023-10-31T07:09:28;100190.97;;;24.74
45701;BMP280;36277;32.852;-116.998;2023-10-31T07:11:55;100188.22;;;24.74
45701;BMP280;36277;32.852;-116.998;2023-10-31T07:14:21;100187.59;;;24.72
45701;BMP280;36277;32.852;-116.998;2023-10-31T07:16:48;100200.31;;;24.73
45701;BMP280;36277;32.852;-116.998;2023-10-31T07:19:14;100194.16;;;24.71
45701;BMP280;36277;32.852;-116.998;2023-10-31T07:21:40;100197.75;;;24.71
45701;BMP280;36277;32.852;-116.998;2023-10-31T07:24:07;100191.41;;;24.71
45701;BMP280;36277;32.852;-116.998;2023-10-31T07:26:35;100195.22;;;24.70
45701;BMP280;36277;32.852;-116.998;2023-10-31T07:29:01;100193.50;;;24.69
45701;BMP280;36277;32.852;-116.998;2023-10-31T07:31:27;100184.56;;;24.67
45701;BMP280;36277;32.852;-116.998;2023-10-31T07:33:54;100184.72;;;24.65
45701;BMP280;36277;32.852;-116.998;2023-10-31T07:36:20;100188.75;;;24.63
45701;BMP280;36277;32.852;-116.998;2023-10-31T07:38:46;100206.16;;;24.63
45701;BMP280;36277;32.852;-116.998;2023-10-31T07:41:13;100197.41;;;24.60
45701;BMP280;36277;32.852;-116.998;2023-10-31T07:43:39;100183.63;;;24.60
45701;BMP280;36277;32.852;-116.998;2023-10-31T07:46:06;100192.94;;;24.59
45701;BMP280;36277;32.852;-116.998;2023-10-31T07:48:32;100191.25;;;24.58
45701;BMP280;36277;32.852;-116.998;2023-10-31T07:50:58;100178.69;;;24.55
45701;BMP280;36277;32.852;-116.998;2023-10-31T07:53:24;100193.34;;;24.56
45701;BMP280;36277;32.852;-116.998;2023-10-31T07:55:51;100199.25;;;24.53
45701;BMP280;36277;32.852;-116.998;2023-10-31T07:58:17;100190.31;;;24.51
45701;BMP280;36277;32.852;-116.998;2023-10-31T08:00:43;100200.50;;;24.50
45701;BMP280;36277;32.852;-116.998;2023-10-31T08:03:09;100196.88;;;24.50
45701;BMP280;36277;32.852;-116.998;2023-10-31T08:05:35;100195.16;;;24.49
45701;BMP280;36277;32.852;-116.998;2023-10-31T08:08:02;100191.56;;;24.48
45701;BMP280;36277;32.852;-116.998;2023-10-31T08:10:28;100196.19;;;24.48
45701;BMP280;36277;32.852;-116.998;2023-10-31T08:12:54;100201.06;;;24.46
45701;BMP280;36277;32.852;-116.998;2023-10-31T08:15:20;100194.88;;;24.44
45701;BMP280;36277;32.852;-116.998;2023-10-31T08:17:47;100201.44;;;24.43
45701;BMP280;36277;32.852;-116.998;2023-10-31T08:20:13;100201.63;;;24.41
45701;BMP280;36277;32.852;-116.998;2023-10-31T08:22:40;100199.91;;;24.40
45701;BMP280;36277;32.852;-116.998;2023-10-31T08:25:08;100194.59;;;24.39
45701;BMP280;36277;32.852;-116.998;2023-10-31T08:27:35;100186.72;;;24.36
45701;BMP280;36277;32.852;-116.998;2023-10-31T08:30:01;100187.75;;;24.35
45701;BMP280;36277;32.852;-116.998;2023-10-31T08:32:28;100189.63;;;24.34
45701;BMP280;36277;32.852;-116.998;2023-10-31T08:34:54;100191.56;;;24.34
45701;BMP280;36277;32.852;-116.998;2023-10-31T08:37:22;100208.31;;;24.32
45701;BMP280;36277;32.852;-116.998;2023-10-31T08:39:48;100201.09;;;24.31
45701;BMP280;36277;32.852;-116.998;2023-10-31T08:42:14;100203.19;;;24.29
45701;BMP280;36277;32.852;-116.998;2023-10-31T08:44:41;100195.97;;;24.28
45701;BMP280;36277;32.852;-116.998;2023-10-31T08:47:07;100203.38;;;24.28
45701;BMP280;36277;32.852;-116.998;2023-10-31T08:49:34;100195.47;;;24.25
45701;BMP280;36277;32.852;-116.998;2023-10-31T08:52:00;100200.97;;;24.25
45701;BMP280;36277;32.852;-116.998;2023-10-31T08:54:27;100210.31;;;24.24
45701;BMP280;36277;32.852;-116.998;2023-10-31T08:56:54;100203.06;;;24.23
45701;BMP280;36277;32.852;-116.998;2023-10-31T08:59:20;100210.72;;;24.21
45701;BMP280;36277;32.852;-116.998;2023-10-31T09:01:46;100210.72;;;24.21
45701;BMP280;36277;32.852;-116.998;2023-10-31T09:04:12;100207.09;;;24.20
45701;BMP280;36277;32.852;-116.998;2023-10-31T09:06:39;100209.19;;;24.18
45701;BMP280;36277;32.852;-116.998;2023-10-31T09:09:05;100198.34;;;24.17
45701;BMP280;36277;32.852;-116.998;2023-10-31T09:13:57;100197.88;;;24.13
45701;BMP280;36277;32.852;-116.998;2023-10-31T09:16:23;100191.69;;;24.12
45701;BMP280;36277;32.852;-116.998;2023-10-31T09:18:49;100202.72;;;24.12
45701;BMP280;36277;32.852;-116.998;2023-10-31T09:21:16;100198.25;;;24.11
45701;BMP280;36277;32.852;-116.998;2023-10-31T09:23:42;100208.63;;;24.09
45701;BMP280;36277;32.852;-116.998;2023-10-31T09:26:09;100200.34;;;24.09
45701;BMP280;36277;32.852;-116.998;2023-10-31T09:28:36;100197.78;;;24.07
45701;BMP280;36277;32.852;-116.998;2023-10-31T09:31:05;100199.88;;;24.05
45701;BMP280;36277;32.852;-116.998;2023-10-31T09:33:31;100201.97;;;24.03
45701;BMP280;36277;32.852;-116.998;2023-10-31T09:35:58;100208.34;;;24.04
45701;BMP280;36277;32.852;-116.998;2023-10-31T09:38:24;100211.28;;;24.02
45701;BMP280;36277;32.852;-116.998;2023-10-31T09:40:50;100210.44;;;24.02
45701;BMP280;36277;32.852;-116.998;2023-10-31T09:43:16;100204.28;;;24.00
45701;BMP280;36277;32.852;-116.998;2023-10-31T09:45:43;100200.84;;;23.98
45701;BMP280;36277;32.852;-116.998;2023-10-31T09:48:11;100196.16;;;23.98
45701;BMP280;36277;32.852;-116.998;2023-10-31T09:50:38;100198.25;;;23.96
45701;BMP280;36277;32.852;-116.998;2023-10-31T09:53:06;100195.50;;;23.96
45701;BMP280;36277;32.852;-116.998;2023-10-31T09:55:34;100186.59;;;23.94
45701;BMP280;36277;32.852;-116.998;2023-10-31T09:58:00;100191.44;;;23.92
45701;BMP280;36277;32.852;-116.998;2023-10-31T10:00:27;100189.53;;;23.93
45701;BMP280;36277;32.852;-116.998;2023-10-31T10:02:54;100192.50;;;23.91
45701;BMP280;36277;32.852;-116.998;2023-10-31T10:05:21;100195.41;;;23.90
45701;BMP280;36277;32.852;-116.998;2023-10-31T10:07:49;100186.47;;;23.88
45701;BMP280;36277;32.852;-116.998;2023-10-31T10:10:16;100183.94;;;23.86
45701;BMP280;36277;32.852;-116.998;2023-10-31T10:12:42;100184.97;;;23.85
45701;BMP280;36277;32.852;-116.998;2023-10-31T10:15:10;100189.44;;;23.86
45701;BMP280;36277;32.852;-116.998;2023-10-31T10:17:37;100186.41;;;23.81
45701;BMP280;36277;32.852;-116.998;2023-10-31T10:20:09;100182.59;;;23.82
45701;BMP280;36277;32.852;-116.998;2023-10-31T10:22:40;100179.19;;;23.80
45701;BMP280;36277;32.852;-116.998;2023-10-31T10:25:12;100176.75;;;23.77
45701;BMP280;36277;32.852;-116.998;2023-10-31T10:27:39;100181.59;;;23.75
45701;BMP280;36277;32.852;-116.998;2023-10-31T10:30:07;100194.34;;;23.76
45701;BMP280;36277;32.852;-116.998;2023-10-31T10:32:37;100185.41;;;23.74
45701;BMP280;36277;32.852;-116.998;2023-10-31T10:35:04;100190.91;;;23.74
45701;BMP280;36277;32.852;-116.998;2023-10-31T10:37:31;100202.31;;;23.71
45701;BMP280;36277;32.852;-116.998;2023-10-31T10:39:58;100196.81;;;23.71
45701;BMP280;36277;32.852;-116.998;2023-10-31T10:42:32;100186.66;;;23.72
45701;BMP280;36277;32.852;-116.998;2023-10-31T10:45:03;100186.19;;;23.68
45701;BMP280;36277;32.852;-116.998;2023-10-31T10:47:31;100191.88;;;23.67
45701;BMP280;36277;32.852;-116.998;2023-10-31T10:50:00;100198.44;;;23.66
45701;BMP280;36277;32.852;-116.998;2023-10-31T10:52:41;100195.88;;;23.64
45701;BMP280;36277;32.852;-116.998;2023-10-31T10:55:13;100187.78;;;23.63
45701;BMP280;36277;32.852;-116.998;2023-10-31T10:58:00;100200.06;;;23.60
45701;BMP280;36277;32.852;-116.998;2023-10-31T11:00:26;100207.84;;;23.57
45701;BMP280;36277;32.852;-116.998;2023-10-31T11:02:56;100198.50;;;23.58
45701;BMP280;36277;32.852;-116.998;2023-10-31T11:05:26;100196.84;;;23.57
45701;BMP280;36277;32.852;-116.998;2023-10-31T11:07:53;100201.84;;;23.53
45701;BMP280;36277;32.852;-116.998;2023-10-31T11:10:21;100198.25;;;23.53
45701;BMP280;36277;32.852;-116.998;2023-10-31T11:12:47;100199.47;;;23.50
45701;BMP280;36277;32.852;-116.998;2023-10-31T11:15:16;100197.38;;;23.52
45701;BMP280;36277;32.852;-116.998;2023-10-31T11:17:45;100204.81;;;23.52
45701;BMP280;36277;32.852;-116.998;2023-10-31T11:20:13;100199.47;;;23.50
45701;BMP280;36277;32.852;-116.998;2023-10-31T11:22:46;100192.25;;;23.49
45701;BMP280;36277;32.852;-116.998;2023-10-31T11:25:21;100187.97;;;23.47
45701;BMP280;36277;32.852;-116.998;2023-10-31T11:27:52;100188.16;;;23.45
45701;BMP280;36277;32.852;-116.998;2023-10-31T11:30:28;100187.50;;;23.43
45701;BMP280;36277;32.852;-116.998;2023-10-31T11:32:55;100195.94;;;23.42
45701;BMP280;36277;32.852;-116.998;2023-10-31T11:35:23;100194.22;;;23.41
45701;BMP280;36277;32.852;-116.998;2023-10-31T11:38:01;100199.56;;;23.42
45701;BMP280;36277;32.852;-116.998;2023-10-31T11:41:00;100198.22;;;23.38
45701;BMP280;36277;32.852;-116.998;2023-10-31T11:43:56;100197.34;;;23.38
45701;BMP280;36277;32.852;-116.998;2023-10-31T11:46:24;100206.19;;;23.33
45701;BMP280;36277;32.852;-116.998;2023-10-31T11:48:55;100200.69;;;23.33
45701;BMP280;36277;32.852;-116.998;2023-10-31T11:51:26;100198.09;;;23.32
45701;BMP280;36277;32.852;-116.998;2023-10-31T11:53:52;100205.50;;;23.31
45701;BMP280;36277;32.852;-116.998;2023-10-31T11:56:22;100202.56;;;23.33
45701;BMP280;36277;32.852;-116.998;2023-10-31T11:59:00;100196.22;;;23.32
45701;BMP280;36277;32.852;-116.998;2023-10-31T12:01:27;100205.88;;;23.28
45701;BMP280;36277;32.852;-116.998;2023-10-31T12:03:54;100205.03;;;23.28
45701;BMP280;36277;32.852;-116.998;2023-10-31T12:06:20;100207.97;;;23.26
45701;BMP280;36277;32.852;-116.998;2023-10-31T12:08:48;100203.34;;;23.27
45701;BMP280;36277;32.852;-116.998;2023-10-31T12:11:18;100206.25;;;23.25
45701;BMP280;36277;32.852;-116.998;2023-10-31T12:13:56;100212.63;;;23.26
45701;BMP280;36277;32.852;-116.998;2023-10-31T12:16:24;100217.63;;;23.22
45701;BMP280;36277;32.852;-116.998;2023-10-31T12:19:02;100214.88;;;23.22
45701;BMP280;36277;32.852;-116.998;2023-10-31T12:21:42;100216.31;;;23.18
45701;BMP280;36277;32.852;-116.998;2023-10-31T12:24:11;100217.53;;;23.16
45701;BMP280;36277;32.852;-116.998;2023-10-31T12:26:38;100218.56;;;23.15
45701;BMP280;36277;32.852;-116.998;2023-10-31T12:29:11;100215.66;;;23.16
45701;BMP280;36277;32.852;-116.998;2023-10-31T12:31:49;100220.50;;;23.14
45701;BMP280;36277;32.852;-116.998;2023-10-31T12:34:19;100226.34;;;23.11
45701;BMP280;36277;32.852;-116.998;2023-10-31T12:36:47;100224.66;;;23.10
45701;BMP280;36277;32.852;-116.998;2023-10-31T12:39:15;100237.75;;;23.08
45701;BMP280;36277;32.852;-116.998;2023-10-31T12:41:43;100231.53;;;23.06
45701;BMP280;36277;32.852;-116.998;2023-10-31T12:44:09;100232.56;;;23.05
45701;BMP280;36277;32.852;-116.998;2023-10-31T12:46:40;100230.69;;;23.06
45701;BMP280;36277;32.852;-116.998;2023-10-31T12:49:17;100231.72;;;23.05
45701;BMP280;36277;32.852;-116.998;2023-10-31T12:51:57;100242.91;;;23.03
45701;BMP280;36277;32.852;-116.998;2023-10-31T12:54:31;100246.00;;;23.00
45701;BMP280;36277;32.852;-116.998;2023-10-31T12:57:02;100238.81;;;22.99
45701;BMP280;36277;32.852;-116.998;2023-10-31T12:59:31;100238.13;;;22.98
45701;BMP280;36277;32.852;-116.998;2023-10-31T13:01:57;100242.94;;;22.96
45701;BMP280;36277;32.852;-116.998;2023-10-31T13:04:28;100245.72;;;22.96
45701;BMP280;36277;32.852;-116.998;2023-10-31T13:07:02;100243.81;;;22.96
45701;BMP280;36277;32.852;-116.998;2023-10-31T13:09:31;100255.88;;;22.95
45701;BMP280;36277;32.852;-116.998;2023-10-31T13:12:00;100265.16;;;22.94
45701;BMP280;36277;32.852;-116.998;2023-10-31T13:14:27;100261.94;;;22.91
45701;BMP280;36277;32.852;-116.998;2023-10-31T13:16:54;100259.19;;;22.91
45701;BMP280;36277;32.852;-116.998;2023-10-31T13:19:20;100264.69;;;22.91
45701;BMP280;36277;32.852;-116.998;2023-10-31T13:21:46;100261.06;;;22.90
45701;BMP280;36277;32.852;-116.998;2023-10-31T13:24:12;100266.94;;;22.87
45701;BMP280;36277;32.852;-116.998;2023-10-31T13:26:39;100267.97;;;22.86
45701;BMP280;36277;32.852;-116.998;2023-10-31T13:29:05;100272.78;;;22.84